CYPL

Pickle Lake Airport

Pickle Lake, Ontario, Canada
METAR CYPL 202300Z 36003KT 270V070 15SM FEW050 BKN080 BKN200 20/07 A3010 RMK CU2AC3CI1 SLP201 DENSITY ALT 2000FT
Observed Flight Rules
Aug-20 @ 23:00 UTC (an hour ago) Visual Flight Rules
Wind Visibility Clouds
360° at 3 knots 15 miles
  • Few at 5,000' AGL
  • Broken at 8,000' AGL
  • Broken at 20,000' AGL
Temperatures Readings
Current 20°C / 68°F
Dewpoint 7°C / 45°F
Humidity 43%
Altimeter 30.1" Hg
Pressure 1020.1 hPa
Elevation 373
METAR CYPL 202300Z 36003KT 270V070 15SM FEW050 BKN080 BKN200 20/07 A3010 RMK CU2AC3CI1 SLP201 DENSITY ALT 2000FT
Observed Flight Rules
Aug-20 @ 23:00 UTC
(an hour ago)
VFR
Wind Visibility
360° at 3 knots 15 miles
Clouds
  • Few at 5,000' AGL
  • Broken at 8,000' AGL
  • Broken at 20,000' AGL
Temperature Dewpoint
20°C / 68°F 7°C / 45°F
Humidity Altimeter Pressure
43% 30.1" Hg 1020.1 hPa